Time;durP1;ratioP1;P1;durP2;ratioP2;P2;SDS_P1;SDS_P2;PMS_P1;PMS_P2;Temp;Humidity;BMP_temperature;BMP_pressure;BME280_temperature;BME280_humidity;BME280_pressure;Samples;Min_cycle;Max_cycle;Signal;HPM_P1;HPM_P2
2021/01/06 00:00:18;;;;;;;28.83;13.13;;;;;;;1.12;87.64;100125.34;4960522;58;1138274;-89
2021/01/06 00:05:27;;;;;;;23.47;11.10;;;;;;;1.15;87.66;100129.13;4961185;58;1138238;-90
2021/01/06 00:10:34;;;;;;;29.47;12.83;;;;;;;1.20;87.37;100118.51;4934251;58;1138352;-90
2021/01/06 00:15:40;;;;;;;23.50;13.30;;;;;;;1.15;87.37;100117.41;4940935;58;1144442;-89
2021/01/06 00:20:47;;;;;;;17.40;9.43;;;;;;;1.14;87.64;100121.38;4961726;58;1138275;-90
2021/01/06 00:25:52;;;;;;;20.77;11.83;;;;;;;1.14;87.52;100124.83;5037196;59;21268;-90
2021/01/06 00:31:00;;;;;;;24.13;11.00;;;;;;;1.13;87.29;100121.83;4979637;58;1134716;-90
2021/01/06 00:36:16;;;;;;;21.77;11.93;;;;;;;1.12;87.36;100123.20;4819509;59;1138566;-89
2021/01/06 00:41:29;;;;;;;19.30;11.30;;;;;;;1.13;87.61;100120.53;4914310;58;1138210;-89
2021/01/06 00:46:37;;;;;;;19.92;8.50;;;;;;;1.12;87.53;100131.02;4884274;58;1138404;-89
2021/01/06 00:51:50;;;;;;;20.40;9.87;;;;;;;1.15;87.53;100133.48;4892825;58;1136301;-90
2021/01/06 00:56:55;;;;;;;30.23;11.80;;;;;;;1.18;87.40;100133.36;4769804;59;1136425;-89
2021/01/06 01:02:01;;;;;;;26.53;11.53;;;;;;;1.20;87.42;100131.53;4836146;59;1138320;-89
2021/01/06 01:07:07;;;;;;;22.07;9.27;;;;;;;1.16;87.45;100130.81;4827268;59;1138525;-89
2021/01/06 01:12:14;;;;;;;18.90;9.77;;;;;;;1.15;87.52;100131.73;4862024;59;1136202;-88
2021/01/06 01:17:20;;;;;;;17.53;9.43;;;;;;;1.21;87.41;100130.62;4914527;58;1136212;-89
2021/01/06 01:22:25;;;;;;;19.63;10.03;;;;;;;1.20;87.29;100126.32;4848697;58;1136759;-89
2021/01/06 01:27:31;;;;;;;26.57;11.83;;;;;;;1.15;87.28;100121.31;4861433;58;1138392;-88
2021/01/06 01:32:36;;;;;;;23.07;11.33;;;;;;;1.13;87.35;100118.38;4888474;58;1138319;-88
2021/01/06 01:37:47;;;;;;;35.80;14.50;;;;;;;1.15;87.24;100116.55;4916281;58;1138484;-89
2021/01/06 01:43:05;;;;;;;35.47;16.07;;;;;;;1.16;87.36;100123.00;4952058;58;1138405;-89
2021/01/06 01:48:41;;;;;;;27.27;13.97;;;;;;;1.18;87.47;100115.97;4853349;58;1138490;-89
2021/01/06 01:54:06;;;;;;;32.53;13.53;;;;;;;1.22;87.61;100115.37;4898793;58;1138647;-89
2021/01/06 01:59:23;;;;;;;37.57;14.67;;;;;;;1.26;87.48;100107.78;4862915;58;1138362;-89
2021/01/06 02:04:35;;;;;;;36.63;16.83;;;;;;;1.30;87.62;100111.95;4993595;58;1136182;-88
2021/01/06 02:10:17;;;;;;;31.10;13.80;;;;;;;1.30;87.64;100106.73;4892113;58;1138310;-89
2021/01/06 02:15:39;;;;;;;26.95;12.98;;;;;;;1.27;87.24;100105.11;4888106;58;1138496;-88
2021/01/06 02:21:10;;;;;;;27.20;13.03;;;;;;;1.25;87.15;100103.03;4883978;58;1138426;-89
2021/01/06 02:26:17;;;;;;;19.97;11.80;;;;;;;1.29;87.50;100104.59;4860035;58;1138343;-89
2021/01/06 02:31:24;;;;;;;19.60;12.10;;;;;;;1.33;87.68;100111.36;4837332;59;1138839;-89
2021/01/06 02:36:30;;;;;;;23.90;12.73;;;;;;;1.30;87.33;100106.73;4895103;58;1138360;-89
2021/01/06 02:41:37;;;;;;;20.57;11.20;;;;;;;1.29;87.34;100103.29;4864740;58;1138912;-89
2021/01/06 02:46:43;;;;;;;24.55;12.80;;;;;;;1.29;87.34;100103.29;4866622;59;1138569;-89
2021/01/06 02:52:11;;;;;;;26.00;13.80;;;;;;;1.33;87.52;100104.00;4880961;59;1138890;-88
2021/01/06 02:57:19;;;;;;;26.07;13.43;;;;;;;1.26;87.07;100101.28;4663877;61;1138386;-89
2021/01/06 03:02:26;;;;;;;26.50;13.40;;;;;;;1.27;87.22;100107.72;4592199;61;1138425;-88
2021/01/06 03:07:35;;;;;;;33.50;15.58;;;;;;;1.28;87.13;100110.72;4579113;62;1142990;-89
2021/01/06 03:12:41;;;;;;;37.57;18.30;;;;;;;1.30;87.26;100103.68;4602291;62;1138527;-89
2021/01/06 03:17:47;;;;;;;44.05;19.65;;;;;;;1.30;87.31;100104.13;4666343;62;1138685;-89
2021/01/06 03:23:00;;;;;;;32.77;14.70;;;;;;;1.31;87.14;100105.83;4612642;61;1138363;-88
2021/01/06 03:28:07;;;;;;;25.87;14.50;;;;;;;1.31;87.15;100114.48;4657641;61;1138309;-88
2021/01/06 03:33:23;;;;;;;35.83;17.13;;;;;;;1.36;87.13;100111.68;4660036;60;1138708;-88
2021/01/06 03:38:42;;;;;;;32.33;15.60;;;;;;;1.36;87.27;100112.98;4655411;61;1138301;-89
2021/01/06 03:43:54;;;;;;;22.67;13.53;;;;;;;1.34;87.19;100116.11;4745360;60;1138284;-88
2021/01/06 03:49:06;;;;;;;27.00;13.93;;;;;;;1.33;86.85;100112.66;4766772;60;1138780;-89
2021/01/06 03:54:37;;;;;;;25.43;13.80;;;;;;;1.31;86.86;100110.58;4660297;60;1138709;-89
2021/01/06 03:59:47;;;;;;;40.83;19.90;;;;;;;1.31;87.09;100113.19;4911636;58;1139153;-88
2021/01/06 04:05:08;;;;;;;37.75;17.73;;;;;;;1.31;87.36;100105.37;4908342;58;1138387;-88
2021/01/06 04:10:27;;;;;;;28.17;15.60;;;;;;;1.32;86.91;100094.03;4890440;58;1138547;-88
2021/01/06 04:15:33;;;;;;;28.07;15.57;;;;;;;1.30;86.69;100088.50;4910269;58;1138466;-88
2021/01/06 04:20:41;;;;;;;49.30;23.22;;;;;;;1.26;86.91;100084.34;4913675;58;1138394;-88
2021/01/06 04:25:50;;;;;;;33.23;16.85;;;;;;;1.24;87.08;100076.59;4929154;58;1138301;-88
2021/01/06 04:31:08;;;;;;;36.53;18.20;;;;;;;1.24;86.88;100073.98;4892936;58;1138289;-88
2021/01/06 04:36:24;;;;;;;29.37;15.60;;;;;;;1.28;86.94;100079.91;4891397;58;1138511;-88
2021/01/06 04:41:40;;;;;;;27.20;15.13;;;;;;;1.25;86.79;100090.01;4890963;58;1138496;-88
2021/01/06 04:46:50;;;;;;;27.57;14.50;;;;;;;1.21;87.07;100085.88;4860822;60;1136462;-88
2021/01/06 04:52:31;;;;;;;25.17;13.17;;;;;;;1.23;86.99;100099.66;4966744;59;1138640;-88
2021/01/06 04:57:53;;;;;;;26.70;13.67;;;;;;;1.26;86.96;100091.70;4890594;58;1138748;-89
2021/01/06 05:03:49;;;;;;;42.03;23.33;;;;;;;1.29;87.13;100099.38;4749931;61;1138909;-89
2021/01/06 05:08:59;;;;;;;56.70;31.30;;;;;;;1.25;87.20;100096.98;4859137;60;1138415;-87
2021/01/06 05:14:15;;;;;;;23.70;13.03;;;;;;;1.24;87.03;100094.83;4890789;58;1138582;-87
2021/01/06 05:19:30;;;;;;;28.60;18.80;;;;;;;1.24;86.89;100101.34;4891157;58;1138706;-87
2021/01/06 05:24:45;;;;;;;23.03;11.93;;;;;;;1.23;86.90;100103.56;4884937;58;1138334;-90
2021/01/06 05:29:57;;;;;;;22.83;12.20;;;;;;;1.15;86.94;100098.33;4891552;58;1138427;-87
2021/01/06 05:35:28;;;;;;;20.03;10.23;;;;;;;1.13;86.87;100093.19;4787451;60;1138557;-87
2021/01/06 05:40:39;;;;;;;15.97;9.47;;;;;;;1.13;86.79;100097.09;4889750;58;1147371;-87
2021/01/06 05:45:57;;;;;;;26.15;14.73;;;;;;;1.12;86.89;100104.52;4879172;58;1136918;-87
2021/01/06 05:51:13;;;;;;;23.90;14.83;;;;;;;1.05;86.76;100102.66;4887205;58;1138319;-87
2021/01/06 05:56:32;;;;;;;18.77;11.27;;;;;;;1.05;86.76;100107.02;4881429;59;1138769;-87
2021/01/06 06:02:00;;;;;;;18.73;10.70;;;;;;;1.06;86.89;100111.33;4842414;59;1138439;-88
2021/01/06 06:07:22;;;;;;;27.03;13.77;;;;;;;1.02;86.82;100112.37;4831380;59;1138728;-86
2021/01/06 06:12:46;;;;;;;25.23;12.97;;;;;;;0.99;87.13;100117.25;4852202;59;1138813;-86
2021/01/06 06:18:17;;;;;;;21.65;12.60;;;;;;;1.00;87.03;100116.80;4830228;59;1139143;-87
2021/01/06 06:23:59;;;;;;;19.30;11.47;;;;;;;1.05;87.12;100119.59;4864232;59;1138287;-87
2021/01/06 06:29:24;;;;;;;23.97;12.23;;;;;;;1.13;87.42;100127.05;4918697;60;21182;-87
2021/01/06 06:34:37;;;;;;;28.17;17.07;;;;;;;1.10;87.33;100120.66;4867516;59;1134256;-87
2021/01/06 06:39:47;;;;;;;29.90;16.17;;;;;;;1.13;87.09;100122.29;4826867;59;1138350;-87
2021/01/06 06:45:03;;;;;;;21.37;10.77;;;;;;;1.13;86.97;100128.34;4731214;61;1138368;-87
2021/01/06 06:50:54;;;;;;;30.57;17.33;;;;;;;1.09;86.83;100131.14;4817313;61;21110;-87
2021/01/06 06:56:16;;;;;;;24.47;13.33;;;;;;;1.06;86.94;100139.97;4660081;62;1134746;-86
2021/01/06 07:01:41;;;;;;;22.50;13.70;;;;;;;1.09;86.97;100150.22;4622548;62;1138395;-86
2021/01/06 07:06:56;;;;;;;23.33;11.43;;;;;;;1.08;86.99;100151.12;4605080;62;1138664;-86
2021/01/06 07:12:07;;;;;;;17.93;10.50;;;;;;;1.05;87.15;100156.50;4594089;62;1138525;-86
2021/01/06 07:17:17;;;;;;;24.30;13.40;;;;;;;1.07;87.10;100152.53;4592081;62;1138937;-86
2021/01/06 07:22:39;;;;;;;33.20;17.47;;;;;;;1.08;86.94;100163.30;4630518;62;1138460;-86
2021/01/06 07:27:50;;;;;;;44.77;24.43;;;;;;;1.08;87.08;100172.42;4609803;61;1138653;-86
2021/01/06 07:32:59;;;;;;;26.43;13.20;;;;;;;1.05;87.07;100180.78;4743586;61;1138399;-86
2021/01/06 07:38:10;;;;;;;30.53;14.50;;;;;;;1.01;86.82;100180.52;4784153;60;1138321;-86
2021/01/06 07:43:26;;;;;;;20.93;11.33;;;;;;;1.02;86.88;100180.91;4852619;61;21326;-86
2021/01/06 07:48:51;;;;;;;26.17;13.40;;;;;;;1.01;86.87;100187.48;4779492;60;1134178;-86
2021/01/06 07:54:11;;;;;;;24.30;12.43;;;;;;;0.97;87.05;100194.58;4788706;60;1138316;-86
2021/01/06 07:59:30;;;;;;;25.17;13.60;;;;;;;0.99;86.99;100199.72;4803749;59;1138405;-88
2021/01/06 08:04:43;;;;;;;33.93;16.50;;;;;;;1.03;86.94;100207.34;4828310;59;1138290;-88
2021/01/06 08:09:51;;;;;;;30.68;15.93;;;;;;;1.05;87.12;100209.89;4940167;58;1138601;-87
2021/01/06 08:15:19;;;;;;;38.67;17.80;;;;;;;1.01;86.87;100207.86;4922903;58;1138859;-88
2021/01/06 08:20:35;;;;;;;50.70;24.37;;;;;;;1.03;87.00;100207.80;4834367;59;1138323;-87
2021/01/06 08:26:01;;;;;;;49.43;23.73;;;;;;;1.08;86.98;100213.63;4923995;58;1138436;-87
2021/01/06 08:31:20;;;;;;;166.43;69.70;;;;;;;1.08;86.92;100220.14;4943012;58;1138345;-87
2021/01/06 08:36:33;;;;;;;203.83;88.60;;;;;;;1.08;87.00;100219.30;4923915;58;1140875;-87
2021/01/06 08:41:39;;;;;;;45.35;22.32;;;;;;;1.11;86.83;100218.72;4967181;58;1140580;-87
2021/01/06 08:46:47;;;;;;;58.35;28.62;;;;;;;1.08;86.65;100222.75;4815510;59;1138914;-88
2021/01/06 08:52:12;;;;;;;83.47;44.73;;;;;;;1.10;86.82;100233.09;4794878;60;1138370;-88
2021/01/06 08:57:33;;;;;;;38.17;19.97;;;;;;;1.09;86.72;100229.65;4831546;59;1139000;-87
2021/01/06 09:02:50;;;;;;;46.88;26.30;;;;;;;1.12;86.72;100233.89;4817703;60;1138367;-87
2021/01/06 09:07:55;;;;;;;28.15;15.13;;;;;;;1.01;86.63;100218.73;4920504;58;1139003;-88
2021/01/06 09:13:10;;;;;;;34.63;18.10;;;;;;;1.01;86.83;100235.66;4924811;58;1138323;-88
2021/01/06 09:18:22;;;;;;;35.57;16.83;;;;;;;1.00;86.60;100230.06;4920782;58;1138916;-87
2021/01/06 09:23:29;;;;;;;26.07;14.87;;;;;;;0.93;86.55;100237.27;4942133;58;1139308;-88
2021/01/06 09:28:38;;;;;;;27.63;13.57;;;;;;;1.00;86.90;100240.47;4926672;58;1138404;-87
2021/01/06 09:33:44;;;;;;;28.27;14.07;;;;;;;0.92;86.70;100239.48;4942590;58;1138368;-88
2021/01/06 09:38:53;;;;;;;27.77;13.65;;;;;;;0.92;86.70;100239.48;4929108;58;1138521;-87
2021/01/06 09:44:06;;;;;;;34.87;17.07;;;;;;;0.93;86.82;100242.94;4928942;58;1138606;-87
2021/01/06 09:49:16;;;;;;;60.08;25.55;;;;;;;0.87;86.71;100238.85;4965028;58;1138251;-87
2021/01/06 09:54:22;;;;;;;42.83;23.20;;;;;;;0.89;87.01;100232.28;4881027;57;1138361;-87
2021/01/06 09:59:34;;;;;;;28.40;15.60;;;;;;;0.89;86.99;100228.38;4948040;58;1138440;-87
2021/01/06 10:04:44;;;;;;;76.20;33.60;;;;;;;0.86;86.95;100225.45;4898373;58;1138871;-89
2021/01/06 10:09:56;;;;;;;107.25;42.55;;;;;;;0.92;87.12;100212.59;4848167;61;1136347;-87
2021/01/06 10:15:32;;;;;;;41.63;20.13;;;;;;;0.96;87.05;100218.92;4903249;58;1140876;-87
2021/01/06 10:20:50;;;;;;;38.30;18.23;;;;;;;0.97;87.25;100219.77;4966014;59;1134792;-87
2021/01/06 10:26:38;;;;;;;183.83;108.23;;;;;;;1.05;87.31;100213.80;4945238;58;1139061;-87
2021/01/06 10:32:06;;;;;;;31.73;19.20;;;;;;;1.09;87.29;100212.72;4827510;59;1142944;-88
2021/01/06 10:37:28;;;;;;;102.40;42.73;;;;;;;1.10;87.26;100210.52;4878905;59;1136419;-87
2021/01/06 10:42:36;;;;;;;56.77;28.00;;;;;;;1.17;87.33;100204.13;4838417;59;1140528;-87
2021/01/06 10:47:50;;;;;;;29.67;15.25;;;;;;;1.19;86.97;100200.16;4813141;59;1138761;-86
2021/01/06 10:53:09;;;;;;;50.45;25.20;;;;;;;1.20;87.19;100205.30;4800273;60;1138545;-87
2021/01/06 10:58:53;;;;;;;24.73;11.33;;;;;;;1.16;87.00;100203.74;4803531;59;1138549;-86
2021/01/06 11:04:26;;;;;;;53.28;28.87;;;;;;;1.17;86.95;100188.96;4860880;59;1138456;-87
2021/01/06 11:10:11;;;;;;;44.60;18.00;;;;;;;1.18;86.95;100184.99;4827015;60;1138684;-87
2021/01/06 11:15:29;;;;;;;37.73;16.00;;;;;;;1.23;87.29;100186.91;4601291;62;1138924;-87
2021/01/06 11:20:39;;;;;;;35.93;17.40;;;;;;;1.27;87.22;100194.98;4612890;62;1142043;-86
2021/01/06 11:25:52;;;;;;;383.03;139.47;;;;;;;1.33;87.12;100196.03;4599746;62;1138687;-87
2021/01/06 11:31:23;;;;;;;323.73;96.57;;;;;;;1.33;87.06;100193.88;4624010;62;1142506;-87
2021/01/06 11:36:56;;;;;;;54.37;22.37;;;;;;;1.35;87.18;100185.08;4594845;62;1140817;-87
2021/01/06 11:42:18;;;;;;;62.08;28.23;;;;;;;1.33;86.88;100170.44;4601921;62;1138407;-84
2021/01/06 11:47:34;;;;;;;224.43;95.57;;;;;;;1.30;86.75;100164.90;4584868;61;1138500;-86
2021/01/06 11:52:51;;;;;;;40.30;20.20;;;;;;;1.33;87.04;100154.34;4705949;60;1140528;-86
2021/01/06 11:58:25;;;;;;;74.80;34.07;;;;;;;1.36;87.16;100151.61;4753044;60;1138424;-86
2021/01/06 12:03:52;;;;;;;122.10;46.60;;;;;;;1.35;86.89;100148.61;4754857;60;1138534;-86
2021/01/06 12:09:36;;;;;;;65.60;27.03;;;;;;;1.37;86.94;100151.15;4924816;58;1140591;-86
2021/01/06 12:15:04;;;;;;;223.43;78.22;;;;;;;1.40;87.05;100149.68;4929167;58;1138629;-86
2021/01/06 12:20:23;;;;;;;73.37;30.77;;;;;;;1.38;87.12;100151.05;4928304;58;1140534;-86
2021/01/06 12:25:33;;;;;;;62.40;25.50;;;;;;;1.31;86.78;100144.91;4946356;58;1138355;-87
2021/01/06 12:31:07;;;;;;;51.13;20.20;;;;;;;1.32;86.94;100142.69;4926918;58;1138275;-86
2021/01/06 12:36:15;;;;;;;;;;;;;;;1.35;87.03;100143.41;4950078;58;1138315;-85
2021/01/06 12:41:25;;;;;;;165.50;49.13;;;;;;;1.35;87.29;100142.55;4939891;58;971620;-86
2021/01/06 12:46:53;;;;;;;93.57;35.83;;;;;;;1.35;87.19;100149.06;4885291;58;1138764;-86
2021/01/06 12:52:26;;;;;;;105.30;40.00;;;;;;;1.36;87.15;100152.91;4759339;60;1138243;-86
2021/01/06 12:57:45;;;;;;;258.50;73.50;;;;;;;1.35;87.29;100155.13;4924565;58;1140577;-85
2021/01/06 13:02:54;;;;;;;100.40;36.43;;;;;;;1.36;87.31;100163.33;4941895;58;1140442;-85
2021/01/06 13:08:03;;;;;;;130.13;37.00;;;;;;;1.36;87.34;100161.18;4870583;58;1140443;-85
2021/01/06 13:13:34;;;;;;;66.67;25.43;;;;;;;1.36;87.20;100168.55;4727408;60;1140403;-85
2021/01/06 13:19:00;;;;;;;194.50;51.35;;;;;;;1.41;87.26;100168.31;4687121;61;1138972;-86
2021/01/06 13:24:15;;;;;;;58.73;25.70;;;;;;;1.43;87.25;100174.30;4743301;61;1140427;-86
2021/01/06 13:29:28;;;;;;;126.53;39.50;;;;;;;1.39;87.31;100181.86;4728368;60;1138487;-83
2021/01/06 13:34:39;;;;;;;172.20;50.83;;;;;;;1.36;87.16;100177.66;4852413;59;1140477;-85
2021/01/06 13:39:49;;;;;;;48.30;20.97;;;;;;;1.40;87.16;100179.19;4733480;60;1140624;-86
2021/01/06 13:45:04;;;;;;;297.67;77.60;;;;;;;1.43;87.21;100179.52;4688388;61;1138892;-85
2021/01/06 13:50:37;;;;;;;154.57;47.10;;;;;;;1.37;87.16;100181.95;4827443;59;1140579;-85
2021/01/06 13:55:47;;;;;;;90.92;38.08;;;;;;;1.38;87.29;100172.34;4826311;59;1140726;-86
2021/01/06 14:01:15;;;;;;;111.13;39.83;;;;;;;1.43;87.25;100173.00;4671326;61;1138383;-85
2021/01/06 14:06:30;;;;;;;224.03;86.27;;;;;;;1.43;87.22;100166.48;4827505;59;1140654;-85
2021/01/06 14:12:33;;;;;;;82.37;35.20;;;;;;;1.41;87.40;100173.52;4794823;59;1140705;-85
2021/01/06 14:18:06;;;;;;;194.03;68.47;;;;;;;1.40;87.28;100166.16;4784240;59;1147483;-85
2021/01/06 14:23:22;;;;;;;401.37;102.43;;;;;;;1.43;87.24;100159.97;4734046;60;1140504;-85
2021/01/06 14:28:56;;;;;;;86.78;39.58;;;;;;;1.47;87.26;100164.59;4677492;61;1152297;-88
2021/01/06 14:34:20;;;;;;;91.37;36.80;;;;;;;1.41;87.23;100163.94;4709141;61;1138454;-85
2021/01/06 14:39:43;;;;;;;81.83;32.80;;;;;;;1.39;87.22;100167.07;4536362;62;1138454;-86
2021/01/06 14:45:15;;;;;;;102.33;54.23;;;;;;;1.38;87.05;100167.14;4559556;62;1138641;-86
2021/01/06 14:50:28;;;;;;;131.93;72.22;;;;;;;1.42;87.27;100179.13;4580864;61;1140536;-86
2021/01/06 14:55:39;;;;;;;170.17;82.87;;;;;;;1.37;87.45;100168.93;4611906;60;1141026;-88
2021/01/06 15:00:57;;;;;;;105.32;51.20;;;;;;;1.38;87.33;100179.71;4532833;62;1140873;-86
2021/01/06 15:06:12;;;;;;;125.43;77.93;;;;;;;1.44;87.39;100175.14;4713207;60;1140896;-86
2021/01/06 15:11:41;;;;;;;46.60;24.17;;;;;;;1.47;87.25;100179.77;4791815;58;1141041;-87
2021/01/06 15:17:00;;;;;;;147.55;53.45;;;;;;;1.48;87.39;100180.16;4687023;60;1138282;-88
2021/01/06 15:22:13;;;;;;;53.33;25.47;;;;;;;1.46;87.42;100178.08;4838227;59;1140408;-87
2021/01/06 15:27:21;;;;;;;;;;;;;;;1.49;87.28;100165.38;4768666;60;1138710;-87
2021/01/06 15:33:06;;;;;;;111.30;44.87;;;;;;;1.52;87.22;100168.69;4773182;59;971708;-87
2021/01/06 15:38:19;;;;;;;69.13;29.47;;;;;;;1.49;87.19;100164.91;4781168;60;1138732;-84
2021/01/06 15:43:36;;;;;;;;;;;;;;;1.44;87.28;100164.27;4781645;60;1138620;-87
2021/01/06 15:48:42;;;;;;;83.23;34.70;;;;;;;1.40;87.07;100164.86;4789895;59;971650;-87
2021/01/06 15:53:50;;;;;;;78.25;33.23;;;;;;;1.39;87.06;100161.02;4800551;60;1136736;-87
2021/01/06 15:58:59;;;;;;;111.90;44.57;;;;;;;1.40;87.15;100160.10;4765629;60;1139161;-87
2021/01/06 16:04:10;;;;;;;164.23;72.23;;;;;;;1.41;87.35;100160.03;4854208;60;1140328;-88
2021/01/06 16:09:23;;;;;;;101.10;39.57;;;;;;;1.43;87.22;100158.66;4758602;60;1140680;-88
2021/01/06 16:14:40;;;;;;;91.50;39.53;;;;;;;1.41;86.83;100169.61;4826562;59;1140289;-88
2021/01/06 16:19:57;;;;;;;77.35;32.10;;;;;;;1.36;86.87;100172.45;4844587;59;1138402;-87
2021/01/06 16:25:19;;;;;;;59.93;27.37;;;;;;;1.29;86.93;100171.48;4877811;59;1138318;-88
2021/01/06 16:30:38;;;;;;;64.37;28.57;;;;;;;1.22;86.76;100165.69;4806286;60;1138223;-86
2021/01/06 16:35:48;;;;;;;53.30;24.83;;;;;;;1.21;86.88;100163.17;4825649;60;1138318;-88
2021/01/06 16:40:56;;;;;;;67.17;28.43;;;;;;;1.19;86.95;100165.84;4862208;59;1138369;-88
2021/01/06 16:46:27;;;;;;;50.33;24.23;;;;;;;1.18;87.08;100171.97;4807773;59;1138379;-88
2021/01/06 16:51:42;;;;;;;138.97;50.90;;;;;;;1.20;87.08;100174.50;4805837;59;1138755;-88
2021/01/06 16:56:55;;;;;;;107.47;40.25;;;;;;;1.23;87.05;100171.28;4807577;59;1140401;-88
2021/01/06 17:02:11;;;;;;;90.17;35.53;;;;;;;1.27;87.22;100170.23;4807331;59;1140806;-88
2021/01/06 17:07:36;;;;;;;112.23;45.40;;;;;;;1.29;87.26;100176.69;4863698;59;1136341;-88
2021/01/06 17:12:41;;;;;;;146.20;44.23;;;;;;;1.31;87.22;100176.16;4797571;59;1142035;-88
2021/01/06 17:17:47;;;;;;;179.42;59.00;;;;;;;1.32;86.97;100175.25;4767908;59;1140555;-88
2021/01/06 17:22:52;;;;;;;206.47;72.03;;;;;;;1.37;87.05;100176.75;4788346;59;1140471;-88
2021/01/06 17:28:14;;;;;;;278.90;93.37;;;;;;;1.39;87.22;100177.95;4806531;59;1140387;-88
2021/01/06 17:33:24;;;;;;;160.47;51.30;;;;;;;1.40;87.32;100177.88;4876450;60;21588;-87
2021/01/06 17:38:29;;;;;;;51.47;22.97;;;;;;;1.45;87.13;100184.66;4779231;59;1136224;-88
2021/01/06 17:43:35;;;;;;;118.27;39.77;;;;;;;1.47;86.77;100181.53;4801149;59;1139015;-88
2021/01/06 17:48:42;;;;;;;71.22;32.70;;;;;;;1.44;86.89;100183.81;4772359;59;1140880;-88
2021/01/06 17:53:49;;;;;;;127.62;51.10;;;;;;;1.40;86.75;100184.40;4767388;59;1139238;-88
2021/01/06 17:58:55;;;;;;;74.60;34.00;;;;;;;1.39;86.83;100181.41;4783395;59;1140647;-88
2021/01/06 18:04:03;;;;;;;67.10;31.13;;;;;;;1.43;86.75;100179.52;4793860;59;1138738;-88
2021/01/06 18:09:19;;;;;;;188.73;70.73;;;;;;;1.47;86.99;100180.23;4875403;60;21319;-88
2021/01/06 18:14:29;;;;;;;81.63;33.23;;;;;;;1.39;86.55;100181.86;4892434;59;21161;-89
2021/01/06 18:19:39;;;;;;;158.13;59.93;;;;;;;1.29;86.46;100178.84;4927523;60;21276;-88
2021/01/06 18:24:45;;;;;;;162.10;55.03;;;;;;;1.34;86.77;100182.09;4947803;60;21106;-90
2021/01/06 18:29:58;;;;;;;182.60;60.50;;;;;;;1.38;86.68;100176.26;4948169;60;21463;-90
2021/01/06 18:35:15;;;;;;;;;;;;;;;1.39;86.80;100172.73;4951529;60;21475;-88
2021/01/06 18:40:21;;;;;;;144.73;54.63;;;;;;;1.34;86.79;100169.06;4927334;60;20159;-89
2021/01/06 18:45:27;;;;;;;133.87;49.17;;;;;;;1.40;86.97;100173.98;4927550;60;21543;-89
2021/01/06 18:50:35;;;;;;;80.80;36.47;;;;;;;1.45;86.67;100166.41;4919799;60;21279;-89
2021/01/06 18:55:41;;;;;;;95.30;43.27;;;;;;;1.40;86.55;100167.46;4923587;60;21188;-89
2021/01/06 19:00:47;;;;;;;88.23;39.47;;;;;;;1.40;86.84;100164.02;4908196;60;21244;-90
2021/01/06 19:05:54;;;;;;;130.17;53.53;;;;;;;1.42;86.63;100162.19;4908710;60;21208;-90
2021/01/06 19:11:03;;;;;;;145.87;62.77;;;;;;;1.43;86.56;100157.81;4909159;60;21199;-89
2021/01/06 19:16:10;;;;;;;180.57;73.33;;;;;;;1.48;86.87;100158.47;4977986;59;21156;-89
2021/01/06 19:21:18;;;;;;;141.43;55.87;;;;;;;1.50;87.01;100160.55;5022475;59;21561;-88
2021/01/06 19:26:24;;;;;;;159.50;55.93;;;;;;;1.44;86.53;100159.05;4944983;58;1136209;-88
2021/01/06 19:31:30;;;;;;;120.33;41.53;;;;;;;1.49;86.75;100163.61;5002663;58;1136294;-89
2021/01/06 19:36:38;;;;;;;91.27;41.60;;;;;;;1.52;86.62;100168.69;4964715;58;1140578;-89
2021/01/06 19:41:46;;;;;;;76.50;36.67;;;;;;;1.50;86.51;100165.76;4969586;58;1138621;-86
2021/01/06 19:46:52;;;;;;;304.93;141.32;;;;;;;1.46;86.69;100159.83;4945904;58;1138403;-86
2021/01/06 19:52:03;;;;;;;156.17;69.30;;;;;;;1.47;86.31;100164.59;4923805;58;1142724;-87
2021/01/06 19:57:17;;;;;;;79.63;36.70;;;;;;;1.44;86.12;100162.96;4943153;58;1140368;-85
2021/01/06 20:02:30;;;;;;;291.33;91.73;;;;;;;1.38;86.21;100164.53;4924154;58;1138251;-85
2021/01/06 20:07:35;;;;;;;227.17;74.77;;;;;;;1.34;86.65;100162.55;4945372;58;1140505;-86
2021/01/06 20:12:50;;;;;;;290.40;91.70;;;;;;;1.34;86.43;100158.64;4920068;58;1140996;-85
2021/01/06 20:17:56;;;;;;;199.45;70.20;;;;;;;1.33;86.30;100150.44;4850740;58;1140366;-85
2021/01/06 20:23:02;;;;;;;295.40;94.40;;;;;;;1.30;86.19;100155.78;4832611;59;1141126;-85
2021/01/06 20:28:07;;;;;;;169.00;63.00;;;;;;;1.31;86.41;100156.63;4826254;59;1140652;-85
2021/01/06 20:33:13;;;;;;;185.03;61.80;;;;;;;1.34;86.79;100157.80;4848299;59;1140445;-85
2021/01/06 20:38:19;;;;;;;222.97;78.50;;;;;;;1.39;86.43;100149.30;4771136;60;1140737;-86
2021/01/06 20:43:25;;;;;;;188.40;75.83;;;;;;;1.37;86.28;100145.48;4827717;59;1140393;-85
2021/01/06 20:48:31;;;;;;;70.77;30.43;;;;;;;1.37;86.49;100148.09;4830043;59;1140483;-85
2021/01/06 20:53:36;;;;;;;152.97;61.67;;;;;;;1.35;86.37;100134.28;4845003;59;1138466;-85
2021/01/06 20:58:42;;;;;;;199.53;71.92;;;;;;;1.33;86.04;100133.96;4827278;59;1140933;-85
2021/01/06 21:03:49;;;;;;;459.18;137.40;;;;;;;1.22;85.82;100130.52;4829587;59;1140754;-85
2021/01/06 21:08:55;;;;;;;117.30;38.03;;;;;;;1.18;85.66;100126.84;4845103;59;1142915;-85
2021/01/06 21:14:01;;;;;;;49.57;23.00;;;;;;;1.10;85.68;100130.23;4843316;59;1140433;-85
2021/01/06 21:19:07;;;;;;;48.23;21.20;;;;;;;0.97;85.73;100136.00;4841104;59;1138591;-85
2021/01/06 21:24:12;;;;;;;133.30;40.50;;;;;;;0.95;85.88;100131.31;4829650;59;1138566;-85
2021/01/06 21:29:19;;;;;;;75.87;30.70;;;;;;;0.94;85.86;100127.02;4847078;59;1140373;-85
2021/01/06 21:34:24;;;;;;;78.50;38.07;;;;;;;1.00;86.29;100132.41;4834829;58;1138543;-84
2021/01/06 21:39:30;;;;;;;60.03;27.73;;;;;;;1.04;86.59;100129.61;4832759;59;1138778;-85
2021/01/06 21:44:36;;;;;;;52.90;25.05;;;;;;;1.12;86.63;100132.31;4833396;59;1147966;-85
2021/01/06 21:49:42;;;;;;;52.27;24.30;;;;;;;1.18;86.58;100123.78;4863604;58;1138610;-85
2021/01/06 21:54:51;;;;;;;65.27;30.47;;;;;;;1.28;86.72;100123.73;4834624;59;1138536;-85
2021/01/06 21:59:55;;;;;;;56.90;25.17;;;;;;;1.31;86.61;100124.91;4837032;59;1138506;-84
2021/01/06 22:05:08;;;;;;;66.73;28.20;;;;;;;1.34;86.62;100129.14;4830102;59;1138781;-85
2021/01/06 22:10:10;;;;;;;74.20;30.63;;;;;;;1.35;86.14;100126.92;4828012;59;1138711;-84
2021/01/06 22:15:16;;;;;;;133.93;49.43;;;;;;;1.34;86.24;100131.74;4832336;58;1138370;-84
2021/01/06 22:20:21;;;;;;;90.90;37.77;;;;;;;1.27;85.91;100125.11;4850380;59;1140425;-85
2021/01/06 22:25:28;;;;;;;74.20;32.47;;;;;;;1.20;85.84;100114.60;4828046;59;1138363;-86
2021/01/06 22:30:33;;;;;;;56.47;27.33;;;;;;;1.22;85.85;100119.28;4826083;59;1139013;-85
2021/01/06 22:35:42;;;;;;;56.63;25.57;;;;;;;1.20;85.96;100120.66;4834596;58;1138651;-85
2021/01/06 22:40:47;;;;;;;41.90;19.23;;;;;;;1.20;86.06;100117.20;4832220;59;1138856;-85
2021/01/06 22:45:54;;;;;;;46.07;21.53;;;;;;;1.18;85.76;100109.91;4827528;59;1138391;-85
2021/01/06 22:50:59;;;;;;;58.35;25.15;;;;;;;1.22;86.05;100113.59;4827196;59;1138715;-85
2021/01/06 22:56:05;;;;;;;60.50;28.57;;;;;;;1.22;85.98;100110.98;4842319;59;1138259;-85
2021/01/06 23:01:11;;;;;;;68.23;29.10;;;;;;;1.24;86.42;100114.37;4826151;59;1138369;-85
2021/01/06 23:06:18;;;;;;;57.63;25.00;;;;;;;1.25;86.00;100106.94;4830505;59;1138305;-84
2021/01/06 23:11:24;;;;;;;91.27;42.03;;;;;;;1.27;86.00;100112.93;4848750;59;1138318;-84
2021/01/06 23:16:29;;;;;;;93.60;40.90;;;;;;;1.25;85.89;100125.17;4830678;58;1138741;-84
2021/01/06 23:21:41;;;;;;;58.43;26.40;;;;;;;1.23;86.16;100119.19;4881527;58;1138334;-84
2021/01/06 23:26:43;;;;;;;50.50;21.80;;;;;;;1.17;85.67;100110.83;4777395;59;1138517;-85
2021/01/06 23:31:49;;;;;;;48.40;20.92;;;;;;;1.15;85.69;100100.47;4784798;59;1138381;-84